Time;durP1;ratioP1;P1;durP2;ratioP2;P2;SDS_P1;SDS_P2;PMS_P1;PMS_P2;Temp;Humidity;BMP_temperature;BMP_pressure;BME280_temperature;BME280_humidity;BME280_pressure;Samples;Min_cycle;Max_cycle;Signal;HPM_P1;HPM_P2
2022/07/23 00:00:12;;;;;;;7.55;6.85;;;;;;;19.48;55.08;101009.52;1653713;85;20211;-86
2022/07/23 00:02:38;;;;;;;12.05;9.23;;;;;;;19.41;54.90;101008.95;1652846;86;21555;-86
2022/07/23 00:05:04;;;;;;;8.05;7.35;;;;;;;19.41;55.03;101001.08;1651348;85;21106;-87
2022/07/23 00:07:31;;;;;;;7.62;6.92;;;;;;;19.44;55.04;100997.47;1617383;86;21493;-86
2022/07/23 00:09:57;;;;;;;6.07;5.57;;;;;;;19.43;55.06;101002.32;1653575;85;21093;-86
2022/07/23 00:12:23;;;;;;;6.80;6.07;;;;;;;19.39;55.12;100999.45;1651193;85;21145;-86
2022/07/23 00:14:50;;;;;;;6.83;6.30;;;;;;;19.36;55.15;101000.91;1653261;86;21537;-86
2022/07/23 00:17:16;;;;;;;7.07;6.37;;;;;;;19.33;55.25;100998.42;1653484;85;21204;-86
2022/07/23 00:19:42;;;;;;;8.38;7.37;;;;;;;19.32;55.27;101000.66;1652324;85;21154;-86
2022/07/23 00:22:08;;;;;;;8.27;6.90;;;;;;;19.25;55.28;101002.70;1623150;88;21220;-87
2022/07/23 00:24:35;;;;;;;7.20;6.60;;;;;;;19.07;55.14;100980.83;1659667;85;21639;-86
2022/07/23 00:27:01;;;;;;;10.00;7.40;;;;;;;19.14;55.49;101002.38;1625031;86;21094;-86
2022/07/23 00:29:28;;;;;;;6.97;6.40;;;;;;;19.14;55.49;101005.84;1649839;86;21523;-86
2022/07/23 00:31:54;;;;;;;7.60;6.92;;;;;;;19.10;55.50;101004.28;1630372;86;21536;-86
2022/07/23 00:34:20;;;;;;;7.72;7.00;;;;;;;19.08;55.56;101009.20;1649163;85;21082;-86
2022/07/23 00:36:46;;;;;;;8.33;7.60;;;;;;;19.03;55.60;101006.78;1642528;86;21067;-86
2022/07/23 00:39:13;;;;;;;8.80;7.90;;;;;;;18.98;55.72;101001.36;1653374;86;21090;-86
2022/07/23 00:41:38;;;;;;;8.43;7.63;;;;;;;18.99;55.72;100999.98;1650410;85;21804;-86
2022/07/23 00:44:24;;;;;;;8.63;7.83;;;;;;;18.96;55.80;101000.57;1653547;86;21059;-86
2022/07/23 00:46:57;;;;;;;8.50;7.70;;;;;;;18.88;55.88;101002.22;1637533;85;21639;-86
2022/07/23 00:49:28;;;;;;;11.08;7.97;;;;;;;18.85;56.05;101000.59;1637819;87;21103;-86
2022/07/23 00:51:55;;;;;;;8.53;7.72;;;;;;;18.87;56.05;101001.83;1639033;85;21092;-86
2022/07/23 00:54:24;;;;;;;;;;;;;;;18.85;56.17;100997.97;1646103;85;21630;-86
2022/07/23 00:56:50;;;;;;;9.63;7.28;;;;;;;18.84;56.37;100991.48;1641125;85;20202;-86
2022/07/23 00:59:17;;;;;;;8.00;7.20;;;;;;;18.77;56.15;100994.83;1630967;85;21551;-86
2022/07/23 01:01:45;;;;;;;6.25;5.75;;;;;;;18.74;56.24;100995.42;1628511;85;21534;-86
2022/07/23 01:04:11;;;;;;;8.65;6.70;;;;;;;18.70;56.23;100999.97;1638311;86;21108;-86
2022/07/23 01:06:38;;;;;;;11.93;7.95;;;;;;;18.68;56.35;100998.34;1637701;85;21125;-86
2022/07/23 01:09:06;;;;;;;8.85;8.05;;;;;;;18.66;56.37;100989.23;1644276;85;21717;-86
2022/07/23 01:11:34;;;;;;;11.63;8.20;;;;;;;18.62;56.49;100990.75;1636807;85;20932;-86
2022/07/23 01:14:18;;;;;;;9.13;8.08;;;;;;;18.58;56.52;100991.30;1626508;85;21016;-86
2022/07/23 01:16:47;;;;;;;8.65;7.80;;;;;;;18.53;56.63;100988.88;1660264;85;20909;-86
2022/07/23 01:19:14;;;;;;;9.23;8.43;;;;;;;18.48;56.69;100992.61;1620156;87;20956;-86
2022/07/23 01:21:43;;;;;;;7.62;6.95;;;;;;;18.45;56.84;100984.43;1622957;86;20980;-86
2022/07/23 01:24:11;;;;;;;7.03;6.17;;;;;;;18.48;56.86;100984.30;1644211;86;20886;-87
2022/07/23 01:26:40;;;;;;;7.33;6.72;;;;;;;18.46;56.80;100977.42;1629208;86;20965;-86
2022/07/23 01:29:07;;;;;;;7.33;5.85;;;;;;;18.37;56.90;100979.13;1634665;86;20933;-86
2022/07/23 01:31:33;;;;;;;5.20;4.70;;;;;;;18.37;56.98;100986.98;1644853;86;20949;-87
2022/07/23 01:33:59;;;;;;;6.73;6.13;;;;;;;18.31;56.95;100984.61;1631786;86;20949;-86
2022/07/23 01:36:25;;;;;;;7.40;6.83;;;;;;;18.26;57.01;100991.81;1630496;86;20924;-86
2022/07/23 01:38:51;;;;;;;8.80;7.80;;;;;;;18.28;57.06;100985.59;1652210;86;20940;-86
2022/07/23 01:41:18;;;;;;;9.00;8.15;;;;;;;18.25;57.06;100984.88;1636343;86;20937;-86
2022/07/23 01:43:44;;;;;;;10.28;7.55;;;;;;;18.24;57.15;100984.02;1641525;86;20961;-86
2022/07/23 01:46:11;;;;;;;8.13;7.40;;;;;;;18.22;57.20;100979.30;1641850;86;20973;-86
2022/07/23 01:48:38;;;;;;;7.65;6.87;;;;;;;18.16;57.08;100984.83;1664674;84;20900;-86
2022/07/23 01:51:04;;;;;;;8.87;7.20;;;;;;;18.05;57.30;100976.11;1671243;85;20956;-87
2022/07/23 01:53:31;;;;;;;7.37;6.80;;;;;;;18.07;57.34;100976.05;1669505;85;25601;-86
2022/07/23 01:55:58;;;;;;;9.18;7.40;;;;;;;18.07;57.34;100975.59;1659527;85;20984;-86
2022/07/23 01:58:26;;;;;;;7.28;6.53;;;;;;;18.03;57.40;100977.08;1669043;85;21021;-86
2022/07/23 02:00:53;;;;;;;8.15;7.45;;;;;;;18.00;57.44;100967.59;1658769;85;21095;-86
2022/07/23 02:03:20;;;;;;;10.50;7.90;;;;;;;17.96;57.48;100969.09;1671444;85;21093;-86
2022/07/23 02:05:46;;;;;;;8.20;7.40;;;;;;;17.84;57.58;100972.59;1663218;85;21010;-87
2022/07/23 02:08:12;;;;;;;9.70;8.05;;;;;;;17.82;57.65;100969.64;1644304;85;21125;-86
2022/07/23 02:10:40;;;;;;;8.28;6.92;;;;;;;17.76;57.79;100969.43;1655529;85;21154;-86
2022/07/23 02:13:06;;;;;;;9.58;7.45;;;;;;;17.80;57.93;100972.32;1675743;85;21090;-87
2022/07/23 02:15:32;;;;;;;10.70;8.27;;;;;;;17.85;57.90;100972.98;1669133;85;21003;-86
2022/07/23 02:17:59;;;;;;;7.30;6.70;;;;;;;17.85;57.89;100975.60;1637133;85;21538;-87
2022/07/23 02:20:25;;;;;;;7.75;7.05;;;;;;;17.82;57.82;100975.73;1667172;84;21173;-86
2022/07/23 02:22:51;;;;;;;8.85;7.17;;;;;;;17.74;57.92;100975.64;1664275;85;21102;-86
2022/07/23 02:25:18;;;;;;;11.40;7.33;;;;;;;17.73;57.99;100984.39;1635713;86;21093;-86
2022/07/23 02:27:44;;;;;;;8.35;7.58;;;;;;;17.62;58.01;100974.81;1662247;85;21681;-86
2022/07/23 02:30:12;;;;;;;8.68;7.47;;;;;;;17.72;58.01;100986.16;1666874;85;21150;-87
2022/07/23 02:32:39;;;;;;;8.80;6.12;;;;;;;17.70;58.08;100984.52;1659987;85;21113;-87
2022/07/23 02:35:08;;;;;;;7.45;6.75;;;;;;;17.70;58.11;100974.05;1652129;85;21150;-86
2022/07/23 02:37:34;;;;;;;8.70;7.50;;;;;;;17.67;58.13;100964.59;1653484;85;21102;-86
2022/07/23 02:40:00;;;;;;;12.68;6.92;;;;;;;17.60;58.16;100968.79;1656882;85;21150;-86
2022/07/23 02:42:27;;;;;;;7.30;6.53;;;;;;;17.58;58.21;100970.16;1659837;84;21106;-86
2022/07/23 02:44:53;;;;;;;7.00;6.40;;;;;;;17.57;58.25;100966.30;1668636;85;21379;-87
2022/07/23 02:47:21;;;;;;;11.25;6.37;;;;;;;17.52;58.32;100967.32;1650070;85;21117;-87
2022/07/23 02:49:47;;;;;;;7.87;7.10;;;;;;;17.52;58.34;100967.32;1619814;86;20908;-86
2022/07/23 02:52:13;;;;;;;7.78;7.00;;;;;;;17.53;58.41;100956.41;1646445;86;21169;-86
2022/07/23 02:54:39;;;;;;;10.23;6.30;;;;;;;17.51;58.44;100951.70;1617709;88;21114;-86
2022/07/23 02:57:06;;;;;;;7.90;7.10;;;;;;;17.48;58.46;100950.05;1652718;86;21086;-86
2022/07/23 02:59:32;;;;;;;8.33;7.65;;;;;;;17.47;58.58;100965.80;1659469;85;21291;-87
2022/07/23 03:01:58;;;;;;;9.27;7.83;;;;;;;17.45;58.59;100965.00;1658147;86;20912;-87
2022/07/23 03:04:24;;;;;;;8.03;7.28;;;;;;;17.42;58.69;100958.59;1651840;86;21121;-87
2022/07/23 03:06:50;;;;;;;10.43;8.00;;;;;;;17.45;58.72;100963.24;1662204;84;21065;-86
2022/07/23 03:09:16;;;;;;;9.60;7.47;;;;;;;17.47;58.74;100956.19;1658982;85;21077;-86
2022/07/23 03:11:42;;;;;;;7.35;6.75;;;;;;;17.48;58.80;100951.81;1628470;86;21134;-86
2022/07/23 03:14:08;;;;;;;7.70;7.10;;;;;;;17.49;58.79;100954.83;1658202;85;21078;-86
2022/07/23 03:16:34;;;;;;;7.75;7.15;;;;;;;17.45;58.78;100955.86;1655229;86;21118;-86
2022/07/23 03:19:00;;;;;;;8.53;7.67;;;;;;;17.36;58.90;100960.98;1642345;85;21018;-86
2022/07/23 03:21:26;;;;;;;8.45;7.65;;;;;;;17.33;59.00;100973.31;1654375;85;21126;-87
2022/07/23 03:23:52;;;;;;;7.47;6.87;;;;;;;17.35;59.14;100984.11;1641927;85;21043;-86
2022/07/23 03:26:18;;;;;;;7.60;6.90;;;;;;;17.35;59.09;100975.42;1657985;86;21134;-86
2022/07/23 03:28:44;;;;;;;9.33;8.43;;;;;;;17.35;59.21;100970.19;1657831;86;20951;-87
2022/07/23 03:31:11;;;;;;;9.77;7.80;;;;;;;17.35;59.31;100970.19;1643770;85;320805;-87
2022/07/23 03:33:37;;;;;;;8.50;7.70;;;;;;;17.42;59.37;100963.81;1655292;85;21092;-86
2022/07/23 03:36:03;;;;;;;7.72;7.12;;;;;;;17.46;59.35;100954.48;1629852;85;21161;-86
2022/07/23 03:38:29;;;;;;;9.15;7.42;;;;;;;17.43;59.39;100952.45;1658100;85;21147;-87
2022/07/23 03:40:55;;;;;;;9.10;8.15;;;;;;;17.46;59.48;100951.87;1649115;85;21170;-86
2022/07/23 03:43:21;;;;;;;8.13;7.43;;;;;;;17.51;59.55;100943.85;1619908;86;21703;-86
2022/07/23 03:45:48;;;;;;;8.43;7.72;;;;;;;17.56;59.50;100935.37;1645132;85;21126;-87
2022/07/23 03:48:14;;;;;;;8.03;7.37;;;;;;;17.57;59.56;100930.53;1681239;83;21425;-86
2022/07/23 03:50:40;;;;;;;10.57;7.60;;;;;;;17.59;59.61;100935.25;1628531;83;5000590;-86
2022/07/23 03:53:06;;;;;;;11.97;7.90;;;;;;;17.65;59.67;100944.19;1674955;83;21049;-87
2022/07/23 03:55:32;;;;;;;7.97;7.37;;;;;;;17.69;59.64;100941.81;1675608;85;21453;-86
2022/07/23 03:57:58;;;;;;;8.73;7.92;;;;;;;17.63;59.66;100943.37;1677477;84;21280;-86
2022/07/23 04:00:24;;;;;;;9.83;8.80;;;;;;;17.64;59.78;100949.00;1673883;84;20993;-87
2022/07/23 04:02:51;;;;;;;8.88;8.08;;;;;;;17.71;59.80;100950.91;1667316;85;21061;-86
2022/07/23 04:05:17;;;;;;;8.77;7.90;;;;;;;17.73;59.90;100942.09;1671127;85;20949;-87
2022/07/23 04:07:43;;;;;;;8.87;8.00;;;;;;;17.80;59.92;100950.08;1671109;85;21691;-87
2022/07/23 04:10:09;;;;;;;9.37;8.47;;;;;;;17.84;59.96;100954.28;1679925;84;21033;-86
2022/07/23 04:12:35;;;;;;;9.93;9.03;;;;;;;17.91;60.00;100951.41;1665335;83;21164;-86
2022/07/23 04:15:02;;;;;;;10.53;8.85;;;;;;;17.95;60.10;100948.61;1679564;85;21132;-87
2022/07/23 04:17:28;;;;;;;10.50;9.50;;;;;;;18.05;60.17;100953.02;1680537;84;21081;-86
2022/07/23 04:19:55;;;;;;;12.03;9.50;;;;;;;18.13;60.21;100943.92;1673786;84;21156;-86
2022/07/23 04:22:21;;;;;;;14.47;9.73;;;;;;;18.22;60.25;100940.04;1669561;85;21120;-86
2022/07/23 04:24:47;;;;;;;9.90;9.10;;;;;;;18.27;60.28;100944.63;1674373;85;21346;-87
2022/07/23 04:27:13;;;;;;;10.27;9.27;;;;;;;18.36;60.33;100956.02;1668733;84;20970;-86
2022/07/23 04:29:40;;;;;;;11.57;10.45;;;;;;;18.40;60.39;100941.87;1652208;85;34126;-87
2022/07/23 04:32:06;;;;;;;14.63;13.03;;;;;;;18.47;60.46;100942.47;1674808;85;20966;-87
2022/07/23 04:34:32;;;;;;;15.48;11.20;;;;;;;18.53;60.48;100943.51;1669003;84;21085;-86
2022/07/23 04:36:59;;;;;;;14.93;10.98;;;;;;;18.58;60.55;100938.07;1689561;83;21089;-87
2022/07/23 04:39:25;;;;;;;13.83;12.50;;;;;;;18.68;60.60;100925.84;1693869;83;21076;-86
2022/07/23 04:41:50;;;;;;;16.60;13.27;;;;;;;18.74;60.62;100924.23;1682199;83;21010;-86
2022/07/23 04:44:16;;;;;;;13.40;11.87;;;;;;;18.79;60.66;100931.88;1678352;83;21801;-87
2022/07/23 04:46:42;;;;;;;14.57;12.43;;;;;;;18.82;60.71;100926.05;1686185;83;21540;-86
2022/07/23 04:49:08;;;;;;;13.60;12.37;;;;;;;18.85;60.83;100917.20;1676286;83;21630;-87
2022/07/23 04:51:35;;;;;;;13.80;12.43;;;;;;;18.90;60.90;100930.94;1652263;85;21150;-87
2022/07/23 04:54:01;;;;;;;14.37;12.23;;;;;;;18.96;61.01;100921.48;1652757;85;21141;-86
2022/07/23 04:56:27;;;;;;;14.27;11.80;;;;;;;19.06;61.08;100915.37;1667188;84;101527;-86
2022/07/23 04:58:53;;;;;;;14.47;12.80;;;;;;;19.18;61.11;100913.03;1652365;85;22116;-86
2022/07/23 05:01:19;;;;;;;14.37;12.60;;;;;;;19.27;61.14;100909.09;1646485;85;21146;-87
2022/07/23 05:03:45;;;;;;;13.53;12.20;;;;;;;19.36;61.21;100904.73;1649343;85;21090;-86
2022/07/23 05:06:11;;;;;;;18.35;12.98;;;;;;;19.45;61.28;100906.06;1654198;85;21446;-87
2022/07/23 05:08:37;;;;;;;14.17;12.73;;;;;;;19.57;61.32;100912.06;1617630;87;20905;-87
2022/07/23 05:11:03;;;;;;;15.27;13.60;;;;;;;19.67;61.34;100908.06;1595894;88;20960;-87
2022/07/23 05:13:29;;;;;;;15.03;13.73;;;;;;;19.79;61.45;100898.71;1637039;87;21121;-87
2022/07/23 05:15:55;;;;;;;19.40;14.97;;;;;;;20.02;61.55;100907.59;1636182;85;21704;-87
2022/07/23 05:18:21;;;;;;;13.87;12.57;;;;;;;20.38;61.62;100908.81;1651187;85;20943;-87
2022/07/23 05:20:47;;;;;;;15.27;13.73;;;;;;;20.84;61.60;100901.10;1648380;85;21201;-86
2022/07/23 05:23:14;;;;;;;16.47;13.83;;;;;;;21.26;61.48;100892.67;1628563;87;21118;-87
2022/07/23 05:25:40;;;;;;;22.80;13.80;;;;;;;21.76;61.52;100884.51;1608877;88;21597;-87
2022/07/23 05:28:06;;;;;;;13.85;12.40;;;;;;;22.31;61.39;100883.88;1598950;88;21151;-87
2022/07/23 05:30:32;;;;;;;14.03;12.63;;;;;;;22.83;61.26;100874.56;1615822;87;21486;-87
2022/07/23 05:32:59;;;;;;;13.80;12.43;;;;;;;23.35;61.13;100875.53;1631125;86;21108;-88
2022/07/23 05:35:25;;;;;;;;;;;;;;;23.77;60.95;100871.02;1646608;85;21145;-87
2022/07/23 05:37:52;;;;;;;16.65;11.68;;;;;;;24.15;60.28;100865.77;1655302;85;20455;-87
2022/07/23 05:40:19;;;;;;;14.28;12.03;;;;;;;24.51;60.63;100869.45;1652303;85;21158;-87
2022/07/23 05:42:45;;;;;;;11.33;10.30;;;;;;;24.90;60.51;100867.96;1628248;87;21111;-87
2022/07/23 05:45:11;;;;;;;13.87;11.80;;;;;;;25.30;60.42;100863.27;1614815;87;22475;-86
2022/07/23 05:47:43;;;;;;;11.45;10.55;;;;;;;25.70;60.11;100857.67;1619537;87;21130;-87
2022/07/23 05:50:11;;;;;;;11.70;10.65;;;;;;;26.04;59.95;100855.92;1605154;88;21182;-87
2022/07/23 05:52:38;;;;;;;12.07;10.98;;;;;;;26.42;59.66;100858.29;1661878;85;21096;-87
2022/07/23 05:55:06;;;;;;;11.73;10.25;;;;;;;26.77;59.47;100856.80;1655563;85;21101;-87
2022/07/23 05:57:32;;;;;;;10.93;9.80;;;;;;;27.13;59.10;100862.77;1669908;85;21095;-86
2022/07/23 05:59:58;;;;;;;12.15;10.18;;;;;;;27.41;58.94;100869.33;1670428;84;21561;-87
2022/07/23 06:02:24;;;;;;;14.18;9.98;;;;;;;27.66;58.65;100865.84;1667055;84;21190;-87
2022/07/23 06:04:50;;;;;;;10.32;9.60;;;;;;;27.91;58.38;100869.09;1660578;84;21094;-87
2022/07/23 06:07:16;;;;;;;10.65;9.85;;;;;;;28.13;58.16;100864.09;1654888;84;21154;-87
2022/07/23 06:09:42;;;;;;;10.53;8.40;;;;;;;28.33;57.80;100857.45;1622541;86;21156;-87
2022/07/23 06:12:09;;;;;;;9.43;8.48;;;;;;;28.54;57.58;100860.06;1653722;85;21343;-87
2022/07/23 06:14:35;;;;;;;10.40;9.33;;;;;;;28.77;57.35;100854.02;1625997;86;21518;-88
2022/07/23 06:17:01;;;;;;;10.67;9.30;;;;;;;28.99;57.06;100847.66;1660273;84;20970;-87
2022/07/23 06:19:27;;;;;;;9.88;8.95;;;;;;;29.24;56.85;100842.27;1658617;84;21355;-88
2022/07/23 06:21:53;;;;;;;13.15;8.83;;;;;;;29.52;56.50;100840.14;1654039;85;21182;-87
2022/07/23 06:24:19;;;;;;;8.43;7.67;;;;;;;29.74;56.20;100842.12;1659333;85;20927;-87
2022/07/23 06:26:45;;;;;;;8.63;7.90;;;;;;;29.95;55.89;100843.63;1653267;85;21113;-87
2022/07/23 06:29:11;;;;;;;7.50;7.00;;;;;;;30.19;55.55;100839.14;1662187;84;21106;-88
2022/07/23 06:31:38;;;;;;;8.43;7.62;;;;;;;30.45;55.27;100831.81;1670729;84;21117;-88
2022/07/23 06:34:04;;;;;;;9.70;7.55;;;;;;;30.67;54.89;100839.47;1660110;84;21508;-88
2022/07/23 06:36:30;;;;;;;8.18;7.47;;;;;;;30.91;54.51;100848.22;1661158;84;21161;-88
2022/07/23 06:38:57;;;;;;;7.90;7.20;;;;;;;31.10;54.27;100857.45;1661894;84;21075;-87
2022/07/23 06:41:23;;;;;;;7.62;6.92;;;;;;;31.30;53.95;100854.64;1660460;85;21089;-88
2022/07/23 06:43:50;;;;;;;7.22;6.72;;;;;;;31.46;53.49;100852.95;1628917;86;21151;-87
2022/07/23 06:46:16;;;;;;;8.00;7.22;;;;;;;31.64;53.12;100844.08;1635875;86;21683;-88
2022/07/23 06:48:42;;;;;;;9.43;6.45;;;;;;;31.83;52.74;100845.23;1646316;85;21526;-87
2022/07/23 06:51:08;;;;;;;7.50;6.75;;;;;;;31.98;52.50;100845.50;1660353;85;21744;-88
2022/07/23 06:53:34;;;;;;;9.28;6.87;;;;;;;32.15;52.03;100852.14;1654372;84;21042;-87
2022/07/23 06:56:00;;;;;;;7.80;7.20;;;;;;;32.37;51.74;100856.61;1658492;84;21019;-87
2022/07/23 06:58:27;;;;;;;6.80;6.28;;;;;;;32.45;51.28;100849.45;1658699;84;21118;-88
2022/07/23 07:00:53;;;;;;;7.80;6.97;;;;;;;32.49;50.91;100847.30;1631496;86;26388;-88
2022/07/23 07:03:19;;;;;;;7.42;6.70;;;;;;;32.61;50.53;100848.69;1647254;85;21096;-87
2022/07/23 07:05:46;;;;;;;7.78;6.72;;;;;;;32.71;50.25;100854.75;1626425;86;21155;-88
2022/07/23 07:08:12;;;;;;;5.58;5.17;;;;;;;32.71;49.83;100853.91;1654025;85;21121;-88
2022/07/23 07:10:38;;;;;;;12.73;5.50;;;;;;;32.77;49.46;100858.62;1654328;84;21154;-88
2022/07/23 07:13:04;;;;;;;4.83;4.35;;;;;;;32.73;49.00;100869.32;1627561;86;21089;-88
2022/07/23 07:15:30;;;;;;;4.60;3.80;;;;;;;32.73;48.79;100862.12;1646869;85;21642;-87
2022/07/23 07:17:56;;;;;;;5.22;4.83;;;;;;;32.75;48.38;100862.83;1610067;87;21117;-87
2022/07/23 07:20:23;;;;;;;6.33;4.58;;;;;;;32.73;47.99;100859.45;1644694;85;21102;-87
2022/07/23 07:22:49;;;;;;;4.70;4.30;;;;;;;32.71;47.76;100853.91;1652577;84;21125;-88
2022/07/23 07:25:15;;;;;;;6.12;4.45;;;;;;;32.60;47.36;100856.38;1660243;84;21075;-87
2022/07/23 07:27:43;;;;;;;5.50;4.00;;;;;;;32.46;47.07;100853.81;1626818;86;21109;-88
2022/07/23 07:30:11;;;;;;;4.37;3.98;;;;;;;32.34;46.79;100856.92;1639777;87;21115;-88
2022/07/23 07:32:37;;;;;;;5.22;4.08;;;;;;;32.19;46.42;100854.00;1628218;86;21144;-88
2022/07/23 07:35:06;;;;;;;4.42;4.08;;;;;;;32.08;46.21;100852.92;1642651;85;21082;-87
2022/07/23 07:37:32;;;;;;;4.70;4.28;;;;;;;31.85;45.99;100851.27;1625128;86;21124;-87
2022/07/23 07:39:58;;;;;;;8.20;4.30;;;;;;;31.69;45.76;100848.50;1646823;85;21102;-87
2022/07/23 07:42:24;;;;;;;4.62;4.33;;;;;;;31.54;45.59;100848.18;1653069;85;20998;-87
2022/07/23 07:44:50;;;;;;;4.80;4.37;;;;;;;31.39;45.46;100854.56;1665514;84;20985;-88
2022/07/23 07:47:16;;;;;;;5.83;5.37;;;;;;;31.25;45.27;100860.44;1659535;84;21882;-87
2022/07/23 07:49:43;;;;;;;9.08;4.30;;;;;;;31.06;45.07;100855.23;1653874;84;21096;-87
2022/07/23 07:52:09;;;;;;;;;;;;;;;30.80;44.99;100859.11;1607670;88;21120;-87
2022/07/23 07:54:36;;;;;;;4.37;3.77;;;;;;;30.49;44.87;100858.55;1652752;85;20209;-87
2022/07/23 07:57:02;;;;;;;4.08;3.72;;;;;;;30.10;44.72;100853.38;1656675;85;21618;-87
2022/07/23 07:59:29;;;;;;;4.17;3.87;;;;;;;29.76;44.73;100858.81;1655578;84;21097;-87
2022/07/23 08:01:55;;;;;;;4.67;4.22;;;;;;;29.46;44.65;100859.35;1653870;85;26961;-88
2022/07/23 08:04:21;;;;;;;5.05;4.47;;;;;;;29.13;44.64;100863.70;1647911;85;21130;-87
2022/07/23 08:06:47;;;;;;;4.85;4.42;;;;;;;28.86;44.66;100868.37;1647925;85;21091;-87
2022/07/23 08:09:14;;;;;;;4.40;4.05;;;;;;;28.60;44.67;100875.95;1653969;85;21101;-87
2022/07/23 08:11:40;;;;;;;4.62;4.25;;;;;;;28.34;44.65;100883.56;1619711;86;21199;-88
2022/07/23 08:14:06;;;;;;;4.22;3.92;;;;;;;28.11;44.73;100901.94;1654345;85;21102;-87
2022/07/23 08:16:32;;;;;;;3.92;3.65;;;;;;;27.89;44.74;100915.74;1628181;86;21142;-87
2022/07/23 08:18:58;;;;;;;4.77;4.40;;;;;;;27.65;44.81;100932.39;1657530;85;21113;-88
2022/07/23 08:21:24;;;;;;;6.17;4.58;;;;;;;27.40;44.93;100948.65;1649093;85;21606;-87
2022/07/23 08:23:50;;;;;;;6.40;4.28;;;;;;;27.18;44.95;100975.59;1651730;85;21164;-87
2022/07/23 08:26:16;;;;;;;7.00;5.27;;;;;;;26.96;45.09;100998.20;1651368;85;21117;-88
2022/07/23 08:28:42;;;;;;;7.05;5.47;;;;;;;26.77;45.29;101014.67;1647178;85;21763;-88
2022/07/23 08:31:10;;;;;;;5.20;4.70;;;;;;;26.56;45.52;101016.33;1655587;85;21161;-88
2022/07/23 08:33:36;;;;;;;6.62;5.20;;;;;;;26.26;45.77;101000.93;1628790;86;21073;-88
2022/07/23 08:36:05;;;;;;;6.28;5.67;;;;;;;25.96;46.17;101006.75;1658622;85;21488;-88
2022/07/23 08:38:33;;;;;;;5.75;5.28;;;;;;;25.64;46.58;100990.08;1631012;86;21049;-88
2022/07/23 08:40:59;;;;;;;8.60;6.12;;;;;;;25.28;46.91;100959.64;1656614;85;21087;-88
2022/07/23 08:43:30;;;;;;;6.80;6.10;;;;;;;24.92;47.19;100920.28;1648809;85;21148;-88
2022/07/23 08:45:58;;;;;;;6.22;5.70;;;;;;;24.79;47.53;100920.78;1654424;85;21089;-88
2022/07/23 08:48:32;;;;;;;11.55;6.35;;;;;;;24.54;47.96;100938.83;1653439;85;21106;-88
2022/07/23 08:51:01;;;;;;;7.40;6.22;;;;;;;24.40;48.30;100948.22;1659147;84;21117;-88
2022/07/23 08:53:29;;;;;;;6.42;5.83;;;;;;;24.28;48.70;100949.90;1669444;84;21170;-88
2022/07/23 08:55:59;;;;;;;6.03;5.30;;;;;;;24.19;48.98;100951.80;1667762;84;21081;-88
2022/07/23 08:58:26;;;;;;;6.35;5.72;;;;;;;24.03;49.20;100915.00;1659484;84;21089;-88
2022/07/23 09:00:52;;;;;;;8.63;6.08;;;;;;;23.87;49.53;100911.72;1664891;84;21101;-88
2022/07/23 09:03:26;;;;;;;10.40;6.58;;;;;;;23.76;49.94;100944.59;1655340;84;21173;-88
2022/07/23 09:05:55;;;;;;;9.63;6.30;;;;;;;23.67;50.26;100955.28;1640669;86;21043;-88
2022/07/23 09:08:28;;;;;;;7.85;6.80;;;;;;;23.60;50.55;100947.86;1641721;85;21427;-88
2022/07/23 09:11:00;;;;;;;7.00;6.40;;;;;;;23.50;50.93;100944.09;1629355;86;21049;-88
2022/07/23 09:13:53;;;;;;;7.50;5.65;;;;;;;23.41;51.25;100934.97;1662815;84;21105;-88
2022/07/23 09:16:26;;;;;;;6.00;5.55;;;;;;;23.34;51.46;100933.70;1638617;86;21132;-88
2022/07/23 09:18:57;;;;;;;7.05;6.35;;;;;;;23.29;51.84;100941.91;1660557;85;21083;-88
2022/07/23 09:21:29;;;;;;;7.33;5.70;;;;;;;23.31;52.14;100952.36;1646777;85;21450;-87
2022/07/23 09:24:16;;;;;;;9.00;5.75;;;;;;;23.32;52.45;100964.14;1650941;85;21154;-88
2022/07/23 09:26:44;;;;;;;;;;;;;;;23.32;52.73;100962.82;1669209;84;21138;-87
2022/07/23 09:29:26;;;;;;;6.83;6.33;;;;;;;23.31;53.21;100965.09;1652120;84;20240;-87
2022/07/23 09:31:59;;;;;;;6.15;5.65;;;;;;;23.33;52.96;100973.75;1660935;84;21097;-88
2022/07/23 09:34:30;;;;;;;6.72;6.22;;;;;;;23.37;53.35;100973.94;1672388;84;21142;-87
2022/07/23 09:37:15;;;;;;;6.90;6.40;;;;;;;23.43;53.63;100983.22;1668837;84;21121;-87
2022/07/23 09:40:12;;;;;;;5.85;5.35;;;;;;;23.47;53.93;100989.16;1671677;84;21606;-87
2022/07/23 09:42:37;;;;;;;6.90;5.60;;;;;;;23.49;54.12;100992.07;1675706;84;21106;-87
2022/07/23 09:45:07;;;;;;;6.00;5.60;;;;;;;23.41;54.26;100989.92;1673652;84;21149;-87
2022/07/23 09:47:33;;;;;;;5.78;5.30;;;;;;;23.35;54.38;100977.14;1668923;84;21598;-87
2022/07/23 09:50:09;;;;;;;6.27;5.67;;;;;;;23.31;54.65;100968.20;1653819;85;20926;-88
2022/07/23 09:52:48;;;;;;;6.12;5.62;;;;;;;23.30;54.90;100967.34;1660152;84;21096;-87
2022/07/23 09:55:17;;;;;;;6.55;5.47;;;;;;;23.35;55.08;100970.55;1669454;84;21100;-87
2022/07/23 09:57:45;;;;;;;6.33;5.83;;;;;;;23.41;55.37;100966.16;1663192;84;21033;-87
2022/07/23 10:00:12;;;;;;;6.85;6.28;;;;;;;23.49;55.52;100962.19;1668068;84;21132;-88
2022/07/23 10:02:39;;;;;;;6.47;5.97;;;;;;;23.53;55.51;100968.52;1660724;84;21148;-87
2022/07/23 10:05:07;;;;;;;6.78;6.17;;;;;;;23.57;55.73;100963.89;1663228;84;21524;-87
2022/07/23 10:07:37;;;;;;;6.45;5.87;;;;;;;23.61;55.86;100957.47;1603205;86;21449;-87
2022/07/23 10:10:05;;;;;;;6.92;6.37;;;;;;;23.66;56.09;100960.19;1627238;86;21183;-87
2022/07/23 10:15:13;;;;;;;6.70;6.20;;;;;;;23.79;56.41;100965.52;1654385;85;21129;-88
2022/07/23 10:17:39;;;;;;;6.55;5.95;;;;;;;23.82;56.56;100966.64;1647265;85;21114;-87
2022/07/23 10:20:08;;;;;;;5.90;5.50;;;;;;;23.75;56.55;100957.42;1657186;85;21145;-87
2022/07/23 10:22:42;;;;;;;6.60;6.03;;;;;;;23.69;56.80;100967.91;1638272;85;21126;-87
2022/07/23 10:25:26;;;;;;;7.62;6.78;;;;;;;23.71;56.89;100964.70;1645316;85;21161;-87
2022/07/23 10:28:06;;;;;;;7.15;6.35;;;;;;;23.71;56.98;100962.06;1645185;85;21085;-87
2022/07/23 10:31:23;;;;;;;6.60;6.10;;;;;;;23.65;57.11;100949.73;1647327;85;21105;-87
2022/07/23 10:34:18;;;;;;;6.65;6.03;;;;;;;23.61;57.24;100949.08;1643809;85;21102;-87
2022/07/23 10:36:56;;;;;;;6.72;6.12;;;;;;;23.61;57.41;100940.31;1660164;85;26987;-87
2022/07/23 10:39:31;;;;;;;6.40;6.00;;;;;;;23.59;57.56;100931.17;1643332;85;21528;-87
2022/07/23 10:42:14;;;;;;;5.83;5.33;;;;;;;23.61;57.73;100937.67;1647549;85;21124;-87
2022/07/23 10:44:44;;;;;;;4.90;4.40;;;;;;;23.61;57.75;100931.07;1622823;85;21386;-87
2022/07/23 10:50:31;;;;;;;4.70;4.27;;;;;;;23.61;57.92;100917.39;1645885;85;20958;-87
2022/07/23 10:53:17;;;;;;;5.03;4.28;;;;;;;23.65;58.00;100914.93;1662065;85;21605;-87
2022/07/23 10:55:52;;;;;;;4.60;4.23;;;;;;;23.74;58.08;100904.23;1618889;86;21127;-87
2022/07/23 10:58:22;;;;;;;4.72;4.33;;;;;;;23.81;58.13;100902.03;1632683;86;21099;-87
2022/07/23 11:00:49;;;;;;;4.05;3.65;;;;;;;23.90;58.13;100906.23;1639686;86;21116;-87
2022/07/23 11:03:29;;;;;;;4.80;3.37;;;;;;;23.92;58.24;100901.66;1641991;86;21116;-87
2022/07/23 11:05:55;;;;;;;3.75;3.52;;;;;;;24.01;58.34;100898.41;1610565;86;21600;-87
2022/07/23 11:08:22;;;;;;;6.25;3.17;;;;;;;24.16;58.43;100896.52;1635292;86;21175;-87
2022/07/23 11:11:05;;;;;;;4.00;3.70;;;;;;;24.33;58.52;100894.08;1635921;86;21659;-87
2022/07/23 11:13:42;;;;;;;3.98;3.67;;;;;;;24.34;58.40;100880.76;1654715;85;21558;-87
2022/07/23 11:16:13;;;;;;;;;;;;;;;24.49;58.38;100908.37;1662106;85;21617;-87
2022/07/23 11:19:06;;;;;;;4.10;3.80;;;;;;;24.55;58.57;100910.59;1655883;85;20236;-87
2022/07/23 11:21:52;;;;;;;4.42;3.50;;;;;;;24.65;58.59;100912.49;1668648;85;21087;-88
2022/07/23 11:24:32;;;;;;;3.90;3.60;;;;;;;24.76;58.60;100910.42;1659357;85;21589;-87
2022/07/23 11:27:24;;;;;;;;;;;;;;;;;;;;;
2022/07/23 11:30:09;;;;;;;;;;;;;;;;;;;;;
2022/07/23 11:32:50;;;;;;;4.17;3.87;;;;;;;24.94;58.61;100925.47;1657249;85;21087;-87
2022/07/23 11:35:33;;;;;;;6.80;3.50;;;;;;;24.91;58.71;100922.56;1617945;85;21148;-88
2022/07/23 11:38:40;;;;;;;4.08;3.58;;;;;;;24.91;58.78;100920.39;1643051;85;21619;-87